Lucelia, Brazil
Current Conditions -  °F | °C
As of 7:00 PM on Friday 19 Dec 2014 (Local Time) from SBDN Reporting Station
Few Clouds Few Clouds  
Wind Chill: 90°   Ceiling: Unl
Heat Index: 92°   Visibility: 6mi
Dew Point: 66°   Wind: 8mph
Humidity: 46%   Direction: 290°WNW
Pressure: 29.71"   Gusts: NA
Location:  21.72°S, 51.02°W
Report Text: SBDN 192100Z 29007KT 9999 FEW050TCU 32/19 Q1006
Loading
Personal Weather Stations






























Interactive Weather Map New forecast layout! Learn more

10-Day Weather Forecast

Advertisements
Track Severe Weather on mobile